Ze Rui1 — BLBL5 — position and weather

sailwx.info

Track history (hours):
 
Tides and Currents Weather Stations Pressure Air Temp Water Temp Dewpoint Dewpoint Depression Visibility Wind Speed Wind Dir Waves Ship Positions

Ze Rui1

Last reported at 2018-Jun-18 20:07 UTC. Time now 2018-Jun-22 15:03 UTC.
Position N 30°59' E 122°31'.

Length 186 m; draft 6 m.

Type: Cargo ship. MMSI: 413459010.

Date/timePositionNaut miles runAvg speedWind from/ knotsBaromVisibWave heightAir tempDewpointWater temp
2018-Jun-18 20:07N 30°59' E 122°31'112.4
2018-Jun-18 20:00N 30°60' E 122°29'611.6
2018-Jun-18 19:30N 31°01' E 122°23'611.5
2018-Jun-18 19:00N 31°02' E 122°16'611.3
2018-Jun-18 18:30N 31°03' E 122°10'510.2
2018-Jun-18 18:00N 31°04' E 122°04'5 9.4
2018-Jun-18 17:30N 31°06' E 121°59'4 8.8
2018-Jun-18 17:00N 31°08' E 121°54'5 9.7
2018-Jun-18 16:30N 31°11' E 121°50'611.3
2018-Jun-18 16:00N 31°16' E 121°46'7 0.2
2018-Jun-16 19:22N 31°16' E 121°54'4 9.7
2018-Jun-16 18:59N 31°15' E 121°58'5 9.0
2018-Jun-16 18:28N 31°14' E 122°03'1810.0
2018-Jun-16 16:40N 31°06' E 122°22'  
2018-Jun-13 19:49N 30°51' E 122°47'0 0.0
2018-Jun-13 01:52N 30°52' E 122°47'0 0.0
2018-Jun-13 01:28N 30°52' E 122°47'0 0.0
2018-Jun-13 00:58N 30°52' E 122°47'0 0.1
2018-Jun-13 00:25N 30°52' E 122°47'0 0.0
2018-Jun-12 23:46N 30°52' E 122°47'0 0.1
2018-Jun-12 23:30N 30°52' E 122°47'0 0.1
2018-Jun-12 22:59N 30°52' E 122°47'0 0.3
2018-Jun-12 22:30N 30°51' E 122°47'0 0.1
2018-Jun-12 22:00N 30°51' E 122°47'0 0.1
2018-Jun-12 21:30N 30°51' E 122°47'0 0.1
2018-Jun-12 21:00N 30°51' E 122°47'0 0.3
2018-Jun-12 20:29N 30°51' E 122°47'1 2.6
2018-Jun-12 19:56N 30°50' E 122°48'11 9.3
2018-Jun-12 18:42N 30°41' E 122°55'610.7
2018-Jun-12 18:09N 30°35' E 122°54'411.0
2018-Jun-12 17:50N 30°31' E 122°54'411.1
2018-Jun-12 17:26N 30°27' E 122°53'44011.0
2018-Jun-11 01:30N 24°10' E 118°36'3511.2
2018-Jun-10 22:22N 23°48' E 118°07'1411.8
2018-Jun-10 21:09N 23°38' E 117°55'211.7
2018-Jun-10 20:59N 23°37' E 117°53'611.7
2018-Jun-10 20:29N 23°33' E 117°48'611.4
2018-Jun-10 19:57N 23°30' E 117°43'611.2
2018-Jun-10 19:27N 23°26' E 117°38'510.7
2018-Jun-10 19:00N 23°23' E 117°34'510.5
2018-Jun-10 18:30N 23°20' E 117°30'610.5
2018-Jun-10 17:54N 23°16' E 117°24'39011.0
2018-Jun-09 06:22N 21°02' E 110°49'411.0
2018-Jun-09 05:59N 21°02' E 110°44'510.7
2018-Jun-09 05:30N 21°03' E 110°39'510.6
2018-Jun-09 05:00N 21°04' E 110°34'4 7.9
2018-Jun-09 04:30N 21°04' E 110°29'0 0.3
2018-Jun-09 03:49N 21°04' E 110°29'0 0.0
2018-Jun-09 00:28N 21°04' E 110°29'0 0.0
2018-Jun-08 23:58N 21°04' E 110°29'0 0.0
2018-Jun-08 23:28N 21°04' E 110°29'0 0.0
2018-Jun-08 22:58N 21°04' E 110°29'0 0.0
2018-Jun-08 22:28N 21°04' E 110°29'0 0.0
2018-Jun-08 21:58N 21°04' E 110°29'0 0.0
2018-Jun-08 21:28N 21°04' E 110°29'0 0.0
2018-Jun-08 20:52N 21°04' E 110°29'0 0.0
2018-Jun-08 20:28N 21°04' E 110°29'  
Track history (hours):
 
Tides and Currents Weather Stations Pressure Air Temp Water Temp Dewpoint Dewpoint Depression Visibility Wind Speed Wind Dir Waves Ship Positions

Ze Rui1

Last reported at 2018-Jun-18 20:07 UTC. Time now 2018-Jun-22 15:03 UTC.
Position N 30°59' E 122°31'.

Length 186 m; draft 6 m.

Type: Cargo ship. MMSI: 413459010.

Date/timePositionNaut miles runAvg speedWind from/ knotsBaromVisibWave heightAir tempDewpointWater temp
2018-Jun-18 20:07N 30°59' E 122°31'112.4
2018-Jun-18 20:00N 30°60' E 122°29'611.6
2018-Jun-18 19:30N 31°01' E 122°23'611.5
2018-Jun-18 19:00N 31°02' E 122°16'611.3
2018-Jun-18 18:30N 31°03' E 122°10'510.2
2018-Jun-18 18:00N 31°04' E 122°04'5 9.4
2018-Jun-18 17:30N 31°06' E 121°59'4 8.8
2018-Jun-18 17:00N 31°08' E 121°54'5 9.7
2018-Jun-18 16:30N 31°11' E 121°50'611.3
2018-Jun-18 16:00N 31°16' E 121°46'7 0.2
2018-Jun-16 19:22N 31°16' E 121°54'4 9.7
2018-Jun-16 18:59N 31°15' E 121°58'5 9.0
2018-Jun-16 18:28N 31°14' E 122°03'1810.0
2018-Jun-16 16:40N 31°06' E 122°22'  
2018-Jun-13 19:49N 30°51' E 122°47'0 0.0
2018-Jun-13 01:52N 30°52' E 122°47'0 0.0
2018-Jun-13 01:28N 30°52' E 122°47'0 0.0
2018-Jun-13 00:58N 30°52' E 122°47'0 0.1
2018-Jun-13 00:25N 30°52' E 122°47'0 0.0
2018-Jun-12 23:46N 30°52' E 122°47'0 0.1
2018-Jun-12 23:30N 30°52' E 122°47'0 0.1
2018-Jun-12 22:59N 30°52' E 122°47'0 0.3
2018-Jun-12 22:30N 30°51' E 122°47'0 0.1
2018-Jun-12 22:00N 30°51' E 122°47'0 0.1
2018-Jun-12 21:30N 30°51' E 122°47'0 0.1
2018-Jun-12 21:00N 30°51' E 122°47'0 0.3
2018-Jun-12 20:29N 30°51' E 122°47'1 2.6
2018-Jun-12 19:56N 30°50' E 122°48'11 9.3
2018-Jun-12 18:42N 30°41' E 122°55'610.7
2018-Jun-12 18:09N 30°35' E 122°54'411.0
2018-Jun-12 17:50N 30°31' E 122°54'411.1
2018-Jun-12 17:26N 30°27' E 122°53'44011.0
2018-Jun-11 01:30N 24°10' E 118°36'3511.2
2018-Jun-10 22:22N 23°48' E 118°07'1411.8
2018-Jun-10 21:09N 23°38' E 117°55'211.7
2018-Jun-10 20:59N 23°37' E 117°53'611.7
2018-Jun-10 20:29N 23°33' E 117°48'611.4
2018-Jun-10 19:57N 23°30' E 117°43'611.2
2018-Jun-10 19:27N 23°26' E 117°38'510.7
2018-Jun-10 19:00N 23°23' E 117°34'510.5
2018-Jun-10 18:30N 23°20' E 117°30'610.5
2018-Jun-10 17:54N 23°16' E 117°24'39011.0
2018-Jun-09 06:22N 21°02' E 110°49'411.0
2018-Jun-09 05:59N 21°02' E 110°44'510.7
2018-Jun-09 05:30N 21°03' E 110°39'510.6
2018-Jun-09 05:00N 21°04' E 110°34'4 7.9
2018-Jun-09 04:30N 21°04' E 110°29'0 0.3
2018-Jun-09 03:49N 21°04' E 110°29'0 0.0
2018-Jun-09 00:28N 21°04' E 110°29'0 0.0
2018-Jun-08 23:58N 21°04' E 110°29'0 0.0
2018-Jun-08 23:28N 21°04' E 110°29'0 0.0
2018-Jun-08 22:58N 21°04' E 110°29'0 0.0
2018-Jun-08 22:28N 21°04' E 110°29'0 0.0
2018-Jun-08 21:58N 21°04' E 110°29'0 0.0
2018-Jun-08 21:28N 21°04' E 110°29'0 0.0
2018-Jun-08 20:52N 21°04' E 110°29'0 0.0
2018-Jun-08 20:28N 21°04' E 110°29'  

Dump ship's entire track history